Time;durP1;ratioP1;P1;durP2;ratioP2;P2;SDS_P1;SDS_P2;PMS_P1;PMS_P2;Temp;Humidity;BMP_temperature;BMP_pressure;BME280_temperature;BME280_humidity;BME280_pressure;Samples;Min_cycle;Max_cycle;Signal;HPM_P1;HPM_P2
2023/07/14 00:01:35;;;;;;;4.63;3.95;;;13.80;99.90;;;;;;5000972;28;20150;-58
2023/07/14 00:04:01;;;;;;;4.45;3.65;;;13.90;99.90;;;;;;5002764;28;20065;-58
2023/07/14 00:06:26;;;;;;;5.90;4.18;;;13.80;99.90;;;;;;5001538;28;20030;-59
2023/07/14 00:08:52;;;;;;;5.47;4.32;;;13.80;99.90;;;;;;5005721;28;20018;-58
2023/07/14 00:11:21;;;;;;;5.57;4.53;;;13.80;99.90;;;;;;5003697;28;20034;-58
2023/07/14 00:13:49;;;;;;;5.20;4.10;;;13.80;99.90;;;;;;5001132;28;20022;-59
2023/07/14 00:16:25;;;;;;;6.72;4.60;;;13.80;99.90;;;;;;4998539;28;20033;-59
2023/07/14 00:18:51;;;;;;;5.82;5.25;;;13.80;99.90;;;;;;4991285;28;20026;-59
2023/07/14 00:21:22;;;;;;;6.65;4.90;;;13.80;99.90;;;;;;5000685;28;20026;-59
2023/07/14 00:23:48;;;;;;;4.90;4.43;;;13.80;99.90;;;;;;4997858;28;20026;-59
2023/07/14 00:26:18;;;;;;;4.85;4.25;;;13.80;99.90;;;;;;4999275;28;20064;-59
2023/07/14 00:28:45;;;;;;;5.47;4.90;;;13.80;99.90;;;;;;4999388;28;21415;-59
2023/07/14 00:31:16;;;;;;;8.20;5.20;;;13.80;99.90;;;;;;4995305;28;20136;-59
2023/07/14 00:33:44;;;;;;;4.95;4.45;;;13.80;99.90;;;;;;5004564;28;20105;-57
2023/07/14 00:36:12;;;;;;;5.45;4.95;;;13.80;99.90;;;;;;4999282;28;20045;-57
2023/07/14 00:38:38;;;;;;;5.10;4.65;;;13.80;99.90;;;;;;5007834;28;20059;-58
2023/07/14 00:41:08;;;;;;;5.68;4.85;;;13.80;99.90;;;;;;5007091;28;20022;-58
2023/07/14 00:43:34;;;;;;;5.22;4.60;;;13.80;99.90;;;;;;5008915;28;20022;-58
2023/07/14 00:46:01;;;;;;;5.75;4.57;;;13.70;99.90;;;;;;5003106;28;20423;-59
2023/07/14 00:48:28;;;;;;;8.65;4.95;;;13.70;99.90;;;;;;5007109;28;20022;-59
2023/07/14 00:51:22;;;;;;;6.68;5.15;;;13.70;99.90;;;;;;5008416;28;20028;-59
2023/07/14 00:53:48;;;;;;;6.80;4.78;;;13.70;99.90;;;;;;5004442;28;20112;-57
2023/07/14 00:56:14;;;;;;;6.55;5.00;;;13.60;99.90;;;;;;5011906;28;20120;-57
2023/07/14 00:58:45;;;;;;;8.00;5.72;;;13.60;99.90;;;;;;5005593;28;20420;-59
2023/07/14 01:01:25;;;;;;;7.05;5.18;;;13.60;99.90;;;;;;5004584;28;20567;-58
2023/07/14 01:04:00;;;;;;;4.85;4.45;;;13.60;99.90;;;;;;4997786;28;20054;-58
2023/07/14 01:06:32;;;;;;;5.78;5.22;;;13.60;99.90;;;;;;5005404;28;20046;-58
2023/07/14 01:09:08;;;;;;;4.93;4.60;;;13.50;99.90;;;;;;5005353;28;20675;-57
2023/07/14 01:11:36;;;;;;;;;;;13.60;99.90;;;;;;5005392;28;20072;-58
2023/07/14 01:14:06;;;;;;;5.28;4.78;;;13.60;99.90;;;;;;5006471;28;19910;-57
2023/07/14 01:16:36;;;;;;;5.40;4.90;;;13.50;99.90;;;;;;5004743;28;20469;-58
2023/07/14 01:19:06;;;;;;;6.35;4.88;;;13.50;99.90;;;;;;5012950;28;20033;-58
2023/07/14 01:21:33;;;;;;;5.60;4.57;;;13.50;99.90;;;;;;5005030;28;20435;-58
2023/07/14 01:24:21;;;;;;;6.30;4.47;;;13.50;99.90;;;;;;5010397;28;20037;-57
2023/07/14 01:27:05;;;;;;;5.70;5.10;;;13.50;99.90;;;;;;5006762;28;20533;-57
2023/07/14 01:29:33;;;;;;;6.03;5.43;;;13.40;99.90;;;;;;4999999;28;20041;-58
2023/07/14 01:31:59;;;;;;;6.25;5.72;;;13.40;99.90;;;;;;5007258;28;20034;-58
2023/07/14 01:34:25;;;;;;;5.80;5.05;;;13.40;99.90;;;;;;5009684;28;20022;-58
2023/07/14 01:36:56;;;;;;;7.18;4.63;;;13.40;99.90;;;;;;5012379;28;20021;-59
2023/07/14 01:39:22;;;;;;;6.15;4.95;;;13.40;99.90;;;;;;5009029;28;20026;-59
2023/07/14 01:41:48;;;;;;;5.78;5.28;;;13.40;99.90;;;;;;5009434;28;20022;-57
2023/07/14 01:44:16;;;;;;;6.00;5.43;;;13.40;99.90;;;;;;5005989;28;20113;-57
2023/07/14 01:46:42;;;;;;;6.55;5.53;;;13.30;99.90;;;;;;5007961;28;20021;-59
2023/07/14 01:49:18;;;;;;;7.03;6.25;;;13.30;99.90;;;;;;5010910;28;20025;-56
2023/07/14 01:51:45;;;;;;;7.00;5.45;;;13.30;99.90;;;;;;5007991;28;20034;-57
2023/07/14 01:54:37;;;;;;;6.82;6.10;;;13.30;99.90;;;;;;5012076;28;20069;-59
2023/07/14 01:57:09;;;;;;;5.20;4.55;;;13.30;99.90;;;;;;5007241;28;20038;-59
2023/07/14 01:59:38;;;;;;;6.20;5.60;;;13.30;99.90;;;;;;5010947;28;20026;-58
2023/07/14 02:02:09;;;;;;;6.38;5.00;;;13.20;99.90;;;;;;5005573;28;20447;-58
2023/07/14 02:04:37;;;;;;;5.10;4.13;;;13.20;99.90;;;;;;5010631;28;20025;-57
2023/07/14 02:07:03;;;;;;;5.85;5.30;;;13.20;99.90;;;;;;5007436;28;20022;-55
2023/07/14 02:09:30;;;;;;;5.95;5.35;;;13.20;99.90;;;;;;5010587;28;20029;-57
2023/07/14 02:12:04;;;;;;;5.88;5.35;;;13.20;99.90;;;;;;5007780;28;20174;-58
2023/07/14 02:14:42;;;;;;;6.15;5.28;;;13.10;99.90;;;;;;5004248;28;20014;-58
2023/07/14 02:17:20;;;;;;;5.10;4.68;;;13.10;99.90;;;;;;5006180;28;20023;-57
2023/07/14 02:19:46;;;;;;;4.80;4.38;;;13.10;99.90;;;;;;5008857;28;20102;-58
2023/07/14 02:22:11;;;;;;;7.20;5.10;;;13.10;99.90;;;;;;5007109;28;20105;-58
2023/07/14 02:24:37;;;;;;;6.75;5.55;;;13.10;99.90;;;;;;5007681;28;20028;-57
2023/07/14 02:27:04;;;;;;;7.88;6.07;;;13.00;99.90;;;;;;5008017;28;20144;-56
2023/07/14 02:29:31;;;;;;;4.40;4.00;;;13.00;99.90;;;;;;5004575;28;20022;-56
2023/07/14 02:32:16;;;;;;;8.82;5.53;;;13.00;99.90;;;;;;5011053;28;20034;-58
2023/07/14 02:34:48;;;;;;;5.03;4.55;;;13.00;99.90;;;;;;5004308;28;20445;-55
2023/07/14 02:37:51;;;;;;;5.18;4.50;;;13.00;99.90;;;;;;5007068;28;20054;-57
2023/07/14 02:40:17;;;;;;;4.97;4.47;;;12.90;99.90;;;;;;5002323;28;20056;-56
2023/07/14 02:42:42;;;;;;;5.80;5.20;;;12.90;99.90;;;;;;5005128;28;20027;-58
2023/07/14 02:45:08;;;;;;;5.82;4.88;;;12.90;99.90;;;;;;5008398;28;20095;-57
2023/07/14 02:47:38;;;;;;;5.20;4.63;;;12.90;99.90;;;;;;5009503;28;20448;-57
2023/07/14 02:50:04;;;;;;;6.15;5.05;;;12.90;99.90;;;;;;5004630;28;20065;-56
2023/07/14 02:52:29;;;;;;;5.93;4.50;;;12.90;99.90;;;;;;5009087;28;20014;-55
2023/07/14 02:54:55;;;;;;;5.50;5.00;;;12.80;99.90;;;;;;5006523;28;20033;-56
2023/07/14 02:57:20;;;;;;;5.70;5.07;;;12.80;99.90;;;;;;5008640;28;20034;-58
2023/07/14 02:59:46;;;;;;;6.78;5.15;;;12.80;99.90;;;;;;5008219;28;20085;-58
2023/07/14 03:02:12;;;;;;;6.85;5.05;;;12.80;99.90;;;;;;5001435;28;20057;-58
2023/07/14 03:04:37;;;;;;;4.38;3.97;;;12.80;99.90;;;;;;5001311;28;20655;-57
2023/07/14 03:07:03;;;;;;;5.80;5.13;;;12.80;99.90;;;;;;5003264;28;20031;-56
2023/07/14 03:09:28;;;;;;;4.65;4.07;;;12.80;99.90;;;;;;5003202;28;20033;-57
2023/07/14 03:11:54;;;;;;;5.05;4.55;;;12.80;99.90;;;;;;5005648;28;20085;-56
2023/07/14 03:14:19;;;;;;;6.53;4.40;;;12.80;99.90;;;;;;5003107;28;20018;-57
2023/07/14 03:16:45;;;;;;;5.30;4.57;;;12.80;99.90;;;;;;5006672;28;20034;-58
2023/07/14 03:19:10;;;;;;;5.60;5.10;;;12.80;99.90;;;;;;5001091;28;20014;-58
2023/07/14 03:21:36;;;;;;;5.13;4.63;;;12.80;99.90;;;;;;5009098;28;20392;-56
2023/07/14 03:24:02;;;;;;;5.85;5.28;;;12.80;99.90;;;;;;5004603;28;20389;-57
2023/07/14 03:26:27;;;;;;;6.35;5.00;;;12.80;99.90;;;;;;5008086;28;20460;-56
2023/07/14 03:28:53;;;;;;;5.85;5.28;;;12.70;99.90;;;;;;5000237;28;20026;-58
2023/07/14 03:31:18;;;;;;;6.82;4.43;;;12.70;99.90;;;;;;5008311;28;20038;-53
2023/07/14 03:33:44;;;;;;;5.15;4.60;;;12.70;99.90;;;;;;5005851;28;20131;-58
2023/07/14 03:36:13;;;;;;;7.07;4.93;;;12.80;99.90;;;;;;5006092;28;20026;-59
2023/07/14 03:38:44;;;;;;;5.05;4.55;;;12.70;99.90;;;;;;5006374;28;20033;-57
2023/07/14 03:41:11;;;;;;;5.55;5.00;;;12.80;99.90;;;;;;5019911;28;20093;-58
2023/07/14 03:43:37;;;;;;;5.68;5.18;;;12.80;99.90;;;;;;5005515;28;20049;-57
2023/07/14 03:46:03;;;;;;;4.68;4.25;;;12.80;99.90;;;;;;5006131;28;20054;-58
2023/07/14 03:48:28;;;;;;;4.68;4.28;;;12.70;99.90;;;;;;5007148;28;20025;-58
2023/07/14 03:51:00;;;;;;;5.50;4.90;;;12.80;99.90;;;;;;5005471;28;20484;-58
2023/07/14 03:53:25;;;;;;;5.50;5.00;;;12.80;99.90;;;;;;5007046;28;20092;-57
2023/07/14 03:55:51;;;;;;;5.85;5.28;;;12.80;99.90;;;;;;5004817;28;20113;-58
2023/07/14 03:58:16;;;;;;;6.63;5.03;;;12.80;99.90;;;;;;5007212;28;20369;-58
2023/07/14 04:00:42;;;;;;;4.78;4.30;;;12.80;99.90;;;;;;5000351;28;20026;-58
2023/07/14 04:03:07;;;;;;;8.50;5.30;;;12.80;99.90;;;;;;5005558;28;20036;-57
2023/07/14 04:05:33;;;;;;;7.57;5.78;;;12.90;99.90;;;;;;5000618;28;20026;-59
2023/07/14 04:07:59;;;;;;;5.80;5.30;;;12.90;99.90;;;;;;5004787;28;20028;-57
2023/07/14 04:10:24;;;;;;;6.93;5.63;;;12.90;99.90;;;;;;5000609;28;20072;-58
2023/07/14 04:12:50;;;;;;;5.63;4.80;;;12.90;99.90;;;;;;5004209;28;20075;-57
2023/07/14 04:15:17;;;;;;;6.65;5.90;;;12.90;99.90;;;;;;5000314;28;20113;-58
2023/07/14 04:17:42;;;;;;;6.25;5.32;;;13.00;99.90;;;;;;5003220;28;20022;-58
2023/07/14 04:20:10;;;;;;;6.55;5.90;;;12.90;99.90;;;;;;5005978;28;20523;-58
2023/07/14 04:22:36;;;;;;;6.13;5.60;;;13.00;99.90;;;;;;5006718;28;20021;-58
2023/07/14 04:25:02;;;;;;;7.80;5.55;;;13.00;99.90;;;;;;5004801;28;20026;-58
2023/07/14 04:27:29;;;;;;;6.03;5.45;;;13.00;99.90;;;;;;5006195;28;20385;-56
2023/07/14 04:29:55;;;;;;;6.93;5.72;;;13.00;99.90;;;;;;5004880;28;20116;-58
2023/07/14 04:32:21;;;;;;;6.05;5.32;;;13.10;99.90;;;;;;5012527;28;20034;-57
2023/07/14 04:34:49;;;;;;;6.88;6.00;;;13.10;99.90;;;;;;5006261;28;20108;-58
2023/07/14 04:37:15;;;;;;;8.27;5.72;;;13.10;99.90;;;;;;5024710;28;20022;-58
2023/07/14 04:39:41;;;;;;;9.45;6.20;;;13.20;99.90;;;;;;5011134;28;20069;-57
2023/07/14 04:42:06;;;;;;;9.20;6.45;;;13.20;99.90;;;;;;5007737;28;20018;-59
2023/07/14 04:44:33;;;;;;;9.93;6.47;;;13.20;99.90;;;;;;5008649;28;20021;-57
2023/07/14 04:46:58;;;;;;;9.35;6.13;;;13.20;99.90;;;;;;5012215;28;20024;-57
2023/07/14 04:49:24;;;;;;;7.50;6.28;;;13.30;99.90;;;;;;5010913;28;20484;-53
2023/07/14 04:51:49;;;;;;;9.75;7.10;;;13.30;99.90;;;;;;5011116;28;20483;-56
2023/07/14 04:54:15;;;;;;;13.20;6.35;;;13.30;99.90;;;;;;5012089;28;20046;-57
2023/07/14 04:56:43;;;;;;;8.55;6.75;;;13.40;99.90;;;;;;5009263;28;20519;-58
2023/07/14 04:59:09;;;;;;;8.30;6.45;;;13.40;99.90;;;;;;5012185;28;20014;-56
2023/07/14 05:01:34;;;;;;;8.45;6.70;;;13.50;99.90;;;;;;5005266;28;20136;-58
2023/07/14 05:04:00;;;;;;;8.30;6.65;;;13.50;99.90;;;;;;5010054;28;20014;-56
2023/07/14 05:06:26;;;;;;;8.70;6.68;;;13.50;99.90;;;;;;5006395;28;20022;-58
2023/07/14 05:08:51;;;;;;;8.00;6.85;;;13.60;99.90;;;;;;5010379;28;20483;-57
2023/07/14 05:11:17;;;;;;;8.30;7.28;;;13.70;99.90;;;;;;5006435;28;20049;-58
2023/07/14 05:13:43;;;;;;;9.15;7.60;;;13.70;99.90;;;;;;5005216;28;20017;-58
2023/07/14 05:16:08;;;;;;;7.18;6.47;;;13.80;99.90;;;;;;5004255;28;20122;-56
2023/07/14 05:18:34;;;;;;;9.05;6.97;;;13.80;99.90;;;;;;5005150;28;20022;-59
2023/07/14 05:21:04;;;;;;;7.60;6.85;;;13.90;99.90;;;;;;5004948;28;20038;-58
2023/07/14 05:23:30;;;;;;;9.88;7.47;;;13.90;99.90;;;;;;5011029;28;20025;-57
2023/07/14 05:25:56;;;;;;;10.15;7.65;;;14.00;99.90;;;;;;5004193;28;20609;-59
2023/07/14 05:28:22;;;;;;;11.10;8.35;;;14.10;99.90;;;;;;5005533;28;20647;-59
2023/07/14 05:30:48;;;;;;;10.60;8.30;;;14.20;99.90;;;;;;5007247;28;20037;-59
2023/07/14 05:33:16;;;;;;;8.80;7.85;;;14.30;99.90;;;;;;5012232;28;20034;-59
2023/07/14 05:35:42;;;;;;;10.85;9.27;;;14.30;99.90;;;;;;5002921;28;20034;-57
2023/07/14 05:38:07;;;;;;;9.40;8.52;;;14.40;99.90;;;;;;5010944;28;20039;-59
2023/07/14 05:40:33;;;;;;;14.88;9.13;;;14.40;99.90;;;;;;5008478;28;20033;-59
2023/07/14 05:42:59;;;;;;;11.32;8.50;;;14.50;99.90;;;;;;5003083;28;20026;-58
2023/07/14 05:45:24;;;;;;;8.10;7.30;;;14.60;99.90;;;;;;5009423;28;20076;-59
2023/07/14 05:47:50;;;;;;;10.52;8.43;;;14.70;99.90;;;;;;5011375;28;20489;-59
2023/07/14 05:50:16;;;;;;;10.82;8.23;;;14.80;99.90;;;;;;5007606;28;20025;-60
2023/07/14 05:52:42;;;;;;;10.13;8.82;;;14.90;99.90;;;;;;5008699;28;20385;-60
2023/07/14 05:55:09;;;;;;;11.07;8.35;;;15.00;99.90;;;;;;5006806;28;20022;-60
2023/07/14 05:57:37;;;;;;;11.65;8.55;;;15.10;99.90;;;;;;5008425;28;20094;-59
2023/07/14 06:00:12;;;;;;;12.85;9.50;;;15.20;99.90;;;;;;5005855;28;20070;-59
2023/07/14 06:02:39;;;;;;;11.40;8.73;;;15.30;99.90;;;;;;5002553;28;20025;-60
2023/07/14 06:05:05;;;;;;;10.25;8.80;;;15.40;99.90;;;;;;5011193;28;20751;-60
2023/07/14 06:07:31;;;;;;;13.80;9.45;;;15.60;99.90;;;;;;5003116;28;20029;-60
2023/07/14 06:09:57;;;;;;;11.02;8.88;;;15.70;99.90;;;;;;5010159;28;20018;-60
2023/07/14 06:12:22;;;;;;;10.55;8.57;;;15.80;99.90;;;;;;5004308;28;20033;-61
2023/07/14 06:14:48;;;;;;;14.13;9.05;;;16.00;99.90;;;;;;5008952;28;20429;-59
2023/07/14 06:17:13;;;;;;;11.50;8.07;;;16.10;99.90;;;;;;5004674;28;20017;-60
2023/07/14 06:19:39;;;;;;;13.95;9.25;;;16.30;99.90;;;;;;5008373;28;20033;-61
2023/07/14 06:22:06;;;;;;;8.32;6.80;;;16.50;99.90;;;;;;5005747;28;20026;-60
2023/07/14 06:24:34;;;;;;;11.38;8.63;;;16.60;99.90;;;;;;5007126;28;20026;-61
2023/07/14 06:27:00;;;;;;;9.10;7.30;;;16.80;99.90;;;;;;5005506;28;20025;-61
2023/07/14 06:29:25;;;;;;;8.82;7.50;;;16.90;99.90;;;;;;5003997;28;20014;-61
2023/07/14 06:31:51;;;;;;;9.32;7.13;;;17.10;99.90;;;;;;5004464;28;20034;-61
2023/07/14 06:34:16;;;;;;;7.20;6.50;;;17.20;99.90;;;;;;5002626;28;20038;-60
2023/07/14 06:36:42;;;;;;;8.00;7.20;;;17.40;99.90;;;;;;5002312;28;20037;-61
2023/07/14 06:39:08;;;;;;;8.38;7.35;;;17.50;99.90;;;;;;5010828;28;20029;-61
2023/07/14 06:41:33;;;;;;;8.23;6.93;;;17.70;99.90;;;;;;5004838;28;20030;-60
2023/07/14 06:44:01;;;;;;;8.57;7.75;;;17.80;99.90;;;;;;5009537;28;20033;-61
2023/07/14 06:46:27;;;;;;;7.20;6.25;;;17.80;99.90;;;;;;5009059;28;20013;-60
2023/07/14 06:48:52;;;;;;;8.18;6.60;;;17.90;99.90;;;;;;5002803;28;20061;-61
2023/07/14 06:51:18;;;;;;;9.80;6.53;;;18.00;99.90;;;;;;5007629;28;20030;-61
2023/07/14 06:53:45;;;;;;;9.57;6.60;;;18.10;99.90;;;;;;5002986;28;20045;-60
2023/07/14 06:56:11;;;;;;;9.05;7.00;;;18.20;99.90;;;;;;5006795;28;20029;-61
2023/07/14 06:58:36;;;;;;;7.57;6.30;;;18.30;99.90;;;;;;5008888;28;20018;-61
2023/07/14 07:01:02;;;;;;;6.20;5.05;;;18.40;99.90;;;;;;5005716;28;20088;-60
2023/07/14 07:03:28;;;;;;;10.25;5.95;;;18.40;99.90;;;;;;5002252;28;20095;-59
2023/07/14 07:05:55;;;;;;;7.43;4.85;;;18.40;99.90;;;;;;5006268;28;20440;-61
2023/07/14 07:08:21;;;;;;;6.20;4.85;;;18.50;99.90;;;;;;5001724;28;20018;-60
2023/07/14 07:10:48;;;;;;;7.25;4.85;;;18.60;99.90;;;;;;5010261;28;20071;-60
2023/07/14 07:13:13;;;;;;;9.15;5.55;;;18.80;99.90;;;;;;5003633;28;20017;-60
2023/07/14 07:15:40;;;;;;;10.63;5.50;;;18.90;99.90;;;;;;5008681;28;20033;-61
2023/07/14 07:18:06;;;;;;;6.97;4.65;;;19.00;99.90;;;;;;5004411;28;20401;-61
2023/07/14 07:20:35;;;;;;;6.35;5.30;;;19.10;99.90;;;;;;5008140;28;20025;-61
2023/07/14 07:23:00;;;;;;;4.72;4.03;;;19.20;99.90;;;;;;5005077;28;20449;-61
2023/07/14 07:25:26;;;;;;;5.57;3.88;;;19.30;99.90;;;;;;5001873;28;20028;-61
2023/07/14 07:27:51;;;;;;;8.52;4.50;;;19.40;99.90;;;;;;5003407;28;20057;-62
2023/07/14 07:30:17;;;;;;;6.53;4.20;;;19.40;99.90;;;;;;5002354;28;20044;-62
2023/07/14 07:32:45;;;;;;;10.27;4.68;;;19.50;99.90;;;;;;5004259;28;20018;-61
2023/07/14 07:35:11;;;;;;;4.75;3.50;;;19.60;99.90;;;;;;5004418;28;20105;-62
2023/07/14 07:37:36;;;;;;;4.47;3.65;;;19.70;99.90;;;;;;5004349;28;20090;-60
2023/07/14 07:40:04;;;;;;;3.42;3.10;;;19.80;99.90;;;;;;5009736;28;20034;-62
2023/07/14 07:42:30;;;;;;;8.60;4.40;;;20.00;99.90;;;;;;5002646;28;20033;-62
2023/07/14 07:44:55;;;;;;;7.78;3.75;;;20.00;99.90;;;;;;5008210;28;20032;-62
2023/07/14 07:47:21;;;;;;;5.40;2.97;;;20.10;99.90;;;;;;4986329;28;20580;-61
2023/07/14 07:49:46;;;;;;;6.00;3.55;;;20.10;99.90;;;;;;5007515;28;20360;-62
2023/07/14 07:52:12;;;;;;;6.53;3.65;;;20.20;99.90;;;;;;5008469;28;20496;-62
2023/07/14 07:54:39;;;;;;;3.95;3.28;;;20.30;99.90;;;;;;5004278;28;20018;-62
2023/07/14 07:57:09;;;;;;;3.72;3.17;;;20.40;99.90;;;;;;5008251;28;20176;-62
2023/07/14 07:59:35;;;;;;;4.32;3.47;;;20.50;99.90;;;;;;5004264;28;20010;-62
2023/07/14 08:02:01;;;;;;;5.30;3.40;;;20.60;99.90;;;;;;5007007;28;20030;-61
2023/07/14 08:04:28;;;;;;;3.42;2.97;;;20.70;99.90;;;;;;5000760;28;20033;-62
2023/07/14 08:06:53;;;;;;;3.67;3.00;;;20.70;99.90;;;;;;5004519;28;20777;-60
2023/07/14 08:09:19;;;;;;;4.10;3.28;;;20.80;99.90;;;;;;5001908;28;20028;-62
2023/07/14 08:11:45;;;;;;;3.22;2.42;;;20.90;99.90;;;;;;5005883;28;20022;-62
2023/07/14 08:14:15;;;;;;;2.97;2.00;;;21.00;99.90;;;;;;5001393;28;20018;-62
2023/07/14 08:16:41;;;;;;;2.08;1.90;;;21.10;99.90;;;;;;5002266;28;20496;-62
2023/07/14 08:19:07;;;;;;;2.90;2.28;;;21.20;99.90;;;;;;5001291;28;20045;-62
2023/07/14 08:21:32;;;;;;;2.80;2.00;;;21.30;99.90;;;;;;5003644;28;20535;-62
2023/07/14 08:24:00;;;;;;;3.90;2.10;;;21.20;99.90;;;;;;5006372;28;20791;-62
2023/07/14 08:26:25;;;;;;;3.05;2.08;;;21.20;99.90;;;;;;5008871;28;20037;-62
2023/07/14 08:28:51;;;;;;;4.60;2.08;;;21.30;99.90;;;;;;5005482;28;20018;-62
2023/07/14 08:31:17;;;;;;;5.57;2.47;;;21.50;99.90;;;;;;5023515;28;20503;-61
2023/07/14 08:33:44;;;;;;;3.28;2.08;;;21.60;99.90;;;;;;5004576;28;20018;-62
2023/07/14 08:36:11;;;;;;;3.67;2.63;;;21.70;99.90;;;;;;5006596;28;20026;-62
2023/07/14 08:38:38;;;;;;;4.95;2.70;;;21.90;99.90;;;;;;5003898;28;20091;-62
2023/07/14 08:41:16;;;;;;;3.47;2.03;;;21.80;99.90;;;;;;5006705;28;20026;-62
2023/07/14 08:44:19;;;;;;;5.10;2.22;;;21.80;99.90;;;;;;5007856;28;20135;-62
2023/07/14 08:47:20;;;;;;;5.10;2.25;;;21.90;99.90;;;;;;5003722;28;20023;-60
2023/07/14 08:49:57;;;;;;;3.55;2.25;;;22.00;99.90;;;;;;5008091;28;20014;-61
2023/07/14 08:52:32;;;;;;;3.40;2.33;;;22.00;99.90;;;;;;5008326;28;20052;-61
2023/07/14 08:55:19;;;;;;;3.87;2.43;;;22.10;99.90;;;;;;4996259;28;20409;-62
2023/07/14 08:57:50;;;;;;;3.10;2.20;;;22.20;99.90;;;;;;5007130;28;20289;-60
2023/07/14 09:00:25;;;;;;;3.47;2.20;;;22.20;99.90;;;;;;5007876;28;20097;-61
2023/07/14 09:03:01;;;;;;;11.75;10.73;;;22.30;99.90;;;;;;5005264;28;20384;-61
2023/07/14 09:05:28;;;;;;;117.10;107.22;;;22.30;99.90;;;;;;5001811;28;20398;-62
2023/07/14 09:07:54;;;;;;;107.05;98.15;;;22.10;99.90;;;;;;5005699;28;20029;-61
2023/07/14 09:10:33;;;;;;;12.38;11.32;;;22.10;99.90;;;;;;5003652;28;20030;-60
2023/07/14 09:13:17;;;;;;;7.07;6.38;;;21.80;99.90;;;;;;5002625;28;20028;-61
2023/07/14 09:15:43;;;;;;;7.55;4.82;;;21.80;99.90;;;;;;5000198;28;20507;-61
2023/07/14 09:18:27;;;;;;;6.10;2.72;;;21.90;99.90;;;;;;5008334;28;20026;-62
2023/07/14 09:21:13;;;;;;;3.75;2.30;;;21.90;99.90;;;;;;4999506;28;20048;-63
2023/07/14 09:23:44;;;;;;;5.10;2.15;;;21.90;99.90;;;;;;5006243;28;20137;-62
2023/07/14 09:26:32;;;;;;;2.90;1.92;;;21.80;99.90;;;;;;5004870;28;20079;-61
2023/07/14 09:29:06;;;;;;;2.17;1.83;;;21.70;99.90;;;;;;4995771;28;20033;-61
2023/07/14 09:31:44;;;;;;;2.70;1.67;;;21.50;99.90;;;;;;5007676;28;20038;-60
2023/07/14 09:34:32;;;;;;;4.68;2.25;;;21.40;99.90;;;;;;5004626;28;20022;-60
2023/07/14 09:36:58;;;;;;;5.88;3.35;;;21.40;99.90;;;;;;5009927;28;20026;-61
2023/07/14 09:39:40;;;;;;;3.20;2.17;;;21.50;99.90;;;;;;5002138;28;20028;-63
2023/07/14 09:42:12;;;;;;;2.33;1.63;;;21.60;99.90;;;;;;5009471;28;20033;-62
2023/07/14 09:44:38;;;;;;;6.93;6.10;;;21.70;99.90;;;;;;5008974;28;20472;-61
2023/07/14 09:47:06;;;;;;;23.10;17.45;;;21.70;99.90;;;;;;5010426;28;20034;-62
2023/07/14 09:49:46;;;;;;;2.83;2.40;;;21.80;99.90;;;;;;5008026;28;20259;-63
2023/07/14 09:52:20;;;;;;;6.75;2.75;;;21.70;99.90;;;;;;5011167;28;20121;-61
2023/07/14 09:54:52;;;;;;;14.02;9.13;;;21.50;99.90;;;;;;5005891;28;20096;-62
2023/07/14 09:57:21;;;;;;;5.82;4.63;;;21.50;99.90;;;;;;5010140;28;20022;-62
2023/07/14 09:59:56;;;;;;;14.10;10.70;;;21.50;99.90;;;;;;5004811;28;20120;-61
2023/07/14 10:02:27;;;;;;;10.95;8.13;;;21.50;99.90;;;;;;5008861;28;20428;-63
2023/07/14 10:04:59;;;;;;;7.07;4.63;;;21.70;99.90;;;;;;4991881;28;20098;-61
2023/07/14 10:07:25;;;;;;;3.25;2.20;;;21.70;99.90;;;;;;5006173;28;20026;-62
2023/07/14 10:09:58;;;;;;;3.42;1.92;;;21.70;99.90;;;;;;5007739;28;20037;-62
2023/07/14 10:12:25;;;;;;;3.10;2.80;;;21.60;99.90;;;;;;5007903;28;20018;-61
2023/07/14 10:14:50;;;;;;;4.38;2.72;;;21.50;99.90;;;;;;5006242;28;20030;-62
2023/07/14 10:17:25;;;;;;;4.63;3.33;;;21.50;99.90;;;;;;5006234;28;20084;-62
2023/07/14 10:19:51;;;;;;;2.87;2.50;;;21.50;99.90;;;;;;5005542;28;20032;-63
2023/07/14 10:22:23;;;;;;;9.82;6.60;;;21.60;99.90;;;;;;5006691;28;20033;-63
2023/07/14 10:24:57;;;;;;;29.77;21.92;;;21.70;99.90;;;;;;5003599;28;20036;-63
2023/07/14 10:27:29;;;;;;;7.85;5.78;;;21.90;99.90;;;;;;5005276;28;20110;-63
2023/07/14 10:30:22;;;;;;;7.70;5.15;;;22.00;99.90;;;;;;5003516;28;20113;-62
2023/07/14 10:32:58;;;;;;;4.38;3.00;;;21.90;99.90;;;;;;5007262;28;20030;-61
2023/07/14 10:35:28;;;;;;;2.80;1.88;;;21.90;99.90;;;;;;5004388;28;20110;-60
2023/07/14 10:38:01;;;;;;;2.75;2.35;;;21.70;99.90;;;;;;4992295;28;20035;-62
2023/07/14 10:40:33;;;;;;;2.40;2.20;;;21.70;99.90;;;;;;5003876;28;20094;-62
2023/07/14 10:43:04;;;;;;;3.25;2.03;;;21.80;99.90;;;;;;5008679;28;20080;-63
2023/07/14 10:45:32;;;;;;;3.25;2.42;;;21.70;99.90;;;;;;5006099;28;20022;-62
2023/07/14 10:48:03;;;;;;;3.97;3.35;;;21.80;99.90;;;;;;5009227;28;20028;-62
2023/07/14 10:50:34;;;;;;;2.80;2.17;;;21.90;99.90;;;;;;5007816;28;20403;-60
2023/07/14 10:53:15;;;;;;;2.75;2.17;;;22.00;99.90;;;;;;5010384;28;20113;-62
2023/07/14 10:55:42;;;;;;;2.80;2.30;;;22.10;99.90;;;;;;5004352;28;20413;-61
2023/07/14 10:58:08;;;;;;;4.72;2.40;;;22.10;99.90;;;;;;5010097;28;20459;-62
2023/07/14 11:00:40;;;;;;;3.63;1.70;;;22.00;99.90;;;;;;5004702;28;20022;-61
2023/07/14 11:03:50;;;;;;;3.35;1.73;;;22.00;99.90;;;;;;4998158;28;20022;-62
2023/07/14 11:06:20;;;;;;;2.60;1.50;;;22.00;99.90;;;;;;5000474;28;20034;-62
2023/07/14 11:08:55;;;;;;;2.47;2.05;;;21.80;99.90;;;;;;5009106;28;20033;-63
2023/07/14 11:11:31;;;;;;;2.30;1.45;;;21.70;99.90;;;;;;5006230;28;20088;-62
2023/07/14 11:14:19;;;;;;;2.92;1.60;;;21.60;99.90;;;;;;4995943;28;20018;-60
2023/07/14 11:17:08;;;;;;;2.63;2.13;;;21.50;99.90;;;;;;5004283;28;20388;-62
2023/07/14 11:20:08;;;;;;;2.55;2.00;;;21.40;99.90;;;;;;5007613;28;20056;-62
2023/07/14 11:22:43;;;;;;;2.90;1.80;;;21.30;99.90;;;;;;5002995;28;20025;-60
2023/07/14 11:25:24;;;;;;;2.72;2.28;;;21.30;99.90;;;;;;5008801;28;20037;-61
2023/07/14 11:28:11;;;;;;;3.03;1.77;;;21.40;99.90;;;;;;4995975;28;20042;-61
2023/07/14 11:30:40;;;;;;;2.72;1.80;;;21.60;99.90;;;;;;5006075;28;20053;-62
2023/07/14 11:33:33;;;;;;;3.25;1.70;;;21.80;99.90;;;;;;5001363;28;20030;-62
2023/07/14 11:36:32;;;;;;;1.95;1.77;;;22.10;99.90;;;;;;4994619;28;20022;-61
2023/07/14 11:39:19;;;;;;;2.75;1.85;;;22.20;99.90;;;;;;4993824;28;20064;-62
2023/07/14 11:41:46;;;;;;;4.30;2.08;;;22.30;99.90;;;;;;5002565;28;20097;-62
2023/07/14 11:44:17;;;;;;;3.05;2.33;;;22.30;99.90;;;;;;5009346;28;20021;-61
2023/07/14 11:46:44;;;;;;;4.63;3.00;;;22.30;99.90;;;;;;5002869;28;20030;-62
2023/07/14 11:49:35;;;;;;;2.63;2.22;;;22.50;99.90;;;;;;5009129;28;20010;-62
2023/07/14 11:52:25;;;;;;;2.75;2.30;;;22.60;99.90;;;;;;4991883;28;20425;-62
2023/07/14 11:54:59;;;;;;;3.08;1.92;;;22.70;99.90;;;;;;5000713;28;20014;-62
2023/07/14 11:57:28;;;;;;;3.63;2.13;;;22.80;99.90;;;;;;5006286;28;20030;-61
2023/07/14 12:00:22;;;;;;;2.97;1.73;;;22.90;99.90;;;;;;5004612;28;20181;-62
2023/07/14 12:03:02;;;;;;;3.45;2.60;;;23.00;99.90;;;;;;5004888;28;20491;-62
2023/07/14 12:05:32;;;;;;;5.93;2.55;;;23.10;99.90;;;;;;5003231;28;20039;-62
2023/07/14 12:08:13;;;;;;;2.35;2.05;;;23.10;99.90;;;;;;4999347;28;20022;-62
2023/07/14 12:10:39;;;;;;;3.05;2.22;;;23.00;99.90;;;;;;5005842;28;20034;-61
2023/07/14 12:13:24;;;;;;;2.72;1.95;;;22.90;99.90;;;;;;5000317;28;20025;-62
2023/07/14 12:15:55;;;;;;;2.83;2.08;;;22.90;99.90;;;;;;5004269;28;20022;-62
2023/07/14 12:18:27;;;;;;;3.60;2.45;;;23.00;99.90;;;;;;5002328;28;20052;-62
2023/07/14 12:21:18;;;;;;;2.92;2.38;;;23.10;99.90;;;;;;4990699;28;20029;-62
2023/07/14 12:23:54;;;;;;;5.22;2.70;;;23.20;99.90;;;;;;5002858;28;20029;-61
2023/07/14 12:26:38;;;;;;;5.28;2.28;;;23.20;99.90;;;;;;5007169;28;20032;-62
2023/07/14 12:29:16;;;;;;;4.65;2.42;;;23.30;99.90;;;;;;5001022;28;20532;-61
2023/07/14 12:31:47;;;;;;;2.85;1.80;;;23.40;99.90;;;;;;5005576;28;20519;-62
2023/07/14 12:34:18;;;;;;;3.63;2.40;;;23.30;99.90;;;;;;5004113;28;20026;-61
2023/07/14 12:36:44;;;;;;;2.33;2.13;;;23.20;99.90;;;;;;5006593;28;20045;-61
2023/07/14 12:39:10;;;;;;;3.75;2.38;;;23.10;99.90;;;;;;5004837;28;20137;-61
2023/07/14 12:41:49;;;;;;;2.97;2.30;;;23.00;99.90;;;;;;5005423;28;20061;-60
2023/07/14 12:44:23;;;;;;;2.72;1.95;;;22.90;99.90;;;;;;5005103;28;20223;-62
2023/07/14 12:46:49;;;;;;;2.75;2.05;;;22.90;99.90;;;;;;5003820;28;20476;-63
2023/07/14 12:49:26;;;;;;;3.30;2.17;;;22.90;99.90;;;;;;5005945;28;20112;-62
2023/07/14 12:51:52;;;;;;;4.18;2.55;;;22.80;99.90;;;;;;4995387;28;20070;-62
2023/07/14 12:54:26;;;;;;;3.55;2.65;;;22.80;99.90;;;;;;5006467;28;20022;-61
2023/07/14 12:56:53;;;;;;;3.45;2.63;;;22.70;99.90;;;;;;4996527;28;20038;-62
2023/07/14 12:59:19;;;;;;;3.55;2.42;;;22.70;99.90;;;;;;5005087;28;20017;-62
2023/07/14 13:01:46;;;;;;;3.80;2.60;;;22.70;99.90;;;;;;5009666;28;20056;-63